sensor_id;sensor_type;location;lat;lon;timestamp;temperature;humidity
12115;DHT22;6121;49.810;6.418;2022-08-21T00:00:09;16.50;99.90
12115;DHT22;6121;49.810;6.418;2022-08-21T00:02:36;16.70;99.90
12115;DHT22;6121;49.810;6.418;2022-08-21T00:05:02;16.50;99.90
12115;DHT22;6121;49.810;6.418;2022-08-21T00:07:28;16.40;99.90
12115;DHT22;6121;49.810;6.418;2022-08-21T00:09:54;16.30;99.90
12115;DHT22;6121;49.810;6.418;2022-08-21T00:12:20;16.50;99.90
12115;DHT22;6121;49.810;6.418;2022-08-21T00:14:45;16.60;99.90
12115;DHT22;6121;49.810;6.418;2022-08-21T00:17:11;16.60;99.90
12115;DHT22;6121;49.810;6.418;2022-08-21T00:19:37;16.40;99.90
12115;DHT22;6121;49.810;6.418;2022-08-21T00:22:03;16.10;99.90
12115;DHT22;6121;49.810;6.418;2022-08-21T00:24:28;16.00;99.90
12115;DHT22;6121;49.810;6.418;2022-08-21T00:26:54;15.90;99.90
12115;DHT22;6121;49.810;6.418;2022-08-21T00:29:20;15.80;99.90
12115;DHT22;6121;49.810;6.418;2022-08-21T00:31:46;15.80;99.90
12115;DHT22;6121;49.810;6.418;2022-08-21T00:34:12;15.80;99.90
12115;DHT22;6121;49.810;6.418;2022-08-21T00:36:39;15.80;99.90
12115;DHT22;6121;49.810;6.418;2022-08-21T00:39:06;15.80;99.90
12115;DHT22;6121;49.810;6.418;2022-08-21T00:41:33;15.60;99.90
12115;DHT22;6121;49.810;6.418;2022-08-21T00:43:58;15.50;99.90
12115;DHT22;6121;49.810;6.418;2022-08-21T00:46:24;15.60;99.90
12115;DHT22;6121;49.810;6.418;2022-08-21T00:48:50;15.60;99.90
12115;DHT22;6121;49.810;6.418;2022-08-21T00:51:20;15.60;99.90
12115;DHT22;6121;49.810;6.418;2022-08-21T00:53:54;15.60;99.90
12115;DHT22;6121;49.810;6.418;2022-08-21T00:56:21;15.70;99.90
12115;DHT22;6121;49.810;6.418;2022-08-21T00:58:48;15.70;99.90
12115;DHT22;6121;49.810;6.418;2022-08-21T01:01:14;15.60;99.90
12115;DHT22;6121;49.810;6.418;2022-08-21T01:03:40;15.70;99.90
12115;DHT22;6121;49.810;6.418;2022-08-21T01:06:06;15.60;99.90
12115;DHT22;6121;49.810;6.418;2022-08-21T01:08:33;15.50;99.90
12115;DHT22;6121;49.810;6.418;2022-08-21T01:10:59;15.40;99.90
12115;DHT22;6121;49.810;6.418;2022-08-21T01:13:27;15.40;99.90
12115;DHT22;6121;49.810;6.418;2022-08-21T01:15:56;15.60;99.90
12115;DHT22;6121;49.810;6.418;2022-08-21T01:18:22;15.30;99.90
12115;DHT22;6121;49.810;6.418;2022-08-21T01:21:12;15.10;99.90
12115;DHT22;6121;49.810;6.418;2022-08-21T01:23:41;15.00;99.90
12115;DHT22;6121;49.810;6.418;2022-08-21T01:26:07;15.10;99.90
12115;DHT22;6121;49.810;6.418;2022-08-21T01:28:37;15.20;99.90
12115;DHT22;6121;49.810;6.418;2022-08-21T01:31:05;15.10;99.90
12115;DHT22;6121;49.810;6.418;2022-08-21T01:33:33;15.00;99.90
12115;DHT22;6121;49.810;6.418;2022-08-21T01:35:59;15.00;99.90
12115;DHT22;6121;49.810;6.418;2022-08-21T01:38:24;15.00;99.90
12115;DHT22;6121;49.810;6.418;2022-08-21T01:40:50;15.00;99.90
12115;DHT22;6121;49.810;6.418;2022-08-21T01:43:16;15.00;99.90
12115;DHT22;6121;49.810;6.418;2022-08-21T01:45:42;14.90;99.90
12115;DHT22;6121;49.810;6.418;2022-08-21T01:48:07;14.80;99.90
12115;DHT22;6121;49.810;6.418;2022-08-21T01:50:33;14.80;99.90
12115;DHT22;6121;49.810;6.418;2022-08-21T01:52:59;14.70;99.90
12115;DHT22;6121;49.810;6.418;2022-08-21T01:55:24;14.90;99.90
12115;DHT22;6121;49.810;6.418;2022-08-21T01:57:51;14.70;99.90
12115;DHT22;6121;49.810;6.418;2022-08-21T02:00:20;14.70;99.90
12115;DHT22;6121;49.810;6.418;2022-08-21T02:02:49;14.70;99.90
12115;DHT22;6121;49.810;6.418;2022-08-21T02:05:15;14.60;99.90
12115;DHT22;6121;49.810;6.418;2022-08-21T02:07:48;14.70;99.90
12115;DHT22;6121;49.810;6.418;2022-08-21T02:10:18;14.60;99.90
12115;DHT22;6121;49.810;6.418;2022-08-21T02:12:45;14.70;99.90
12115;DHT22;6121;49.810;6.418;2022-08-21T02:15:11;14.90;99.90
12115;DHT22;6121;49.810;6.418;2022-08-21T02:17:42;15.00;99.90
12115;DHT22;6121;49.810;6.418;2022-08-21T02:20:10;14.90;99.90
12115;DHT22;6121;49.810;6.418;2022-08-21T02:22:36;14.90;99.90
12115;DHT22;6121;49.810;6.418;2022-08-21T02:25:02;14.60;99.90
12115;DHT22;6121;49.810;6.418;2022-08-21T02:27:28;14.40;99.90
12115;DHT22;6121;49.810;6.418;2022-08-21T02:29:57;14.30;99.90
12115;DHT22;6121;49.810;6.418;2022-08-21T02:32:23;14.00;99.90
12115;DHT22;6121;49.810;6.418;2022-08-21T02:34:49;14.00;99.90
12115;DHT22;6121;49.810;6.418;2022-08-21T02:37:15;13.90;99.90
12115;DHT22;6121;49.810;6.418;2022-08-21T02:39:40;14.20;99.90
12115;DHT22;6121;49.810;6.418;2022-08-21T02:42:06;14.20;99.90
12115;DHT22;6121;49.810;6.418;2022-08-21T02:44:32;14.30;99.90
12115;DHT22;6121;49.810;6.418;2022-08-21T02:46:57;14.30;99.90
12115;DHT22;6121;49.810;6.418;2022-08-21T02:49:23;14.30;99.90
12115;DHT22;6121;49.810;6.418;2022-08-21T02:51:49;14.20;99.90
12115;DHT22;6121;49.810;6.418;2022-08-21T02:54:15;14.10;99.90
12115;DHT22;6121;49.810;6.418;2022-08-21T02:56:40;14.10;99.90
12115;DHT22;6121;49.810;6.418;2022-08-21T02:59:06;14.00;99.90
12115;DHT22;6121;49.810;6.418;2022-08-21T03:01:31;13.90;99.90
12115;DHT22;6121;49.810;6.418;2022-08-21T03:03:57;13.80;99.90
12115;DHT22;6121;49.810;6.418;2022-08-21T03:06:23;13.90;99.90
12115;DHT22;6121;49.810;6.418;2022-08-21T03:08:49;14.10;99.90
12115;DHT22;6121;49.810;6.418;2022-08-21T03:11:16;14.30;99.90
12115;DHT22;6121;49.810;6.418;2022-08-21T03:13:42;14.00;99.90
12115;DHT22;6121;49.810;6.418;2022-08-21T03:16:08;13.90;99.90
12115;DHT22;6121;49.810;6.418;2022-08-21T03:18:34;13.80;99.90
12115;DHT22;6121;49.810;6.418;2022-08-21T03:21:00;13.90;99.90
12115;DHT22;6121;49.810;6.418;2022-08-21T03:23:26;13.80;99.90
12115;DHT22;6121;49.810;6.418;2022-08-21T03:25:51;13.70;99.90
12115;DHT22;6121;49.810;6.418;2022-08-21T03:28:20;13.60;99.90
12115;DHT22;6121;49.810;6.418;2022-08-21T03:30:50;13.50;99.90
12115;DHT22;6121;49.810;6.418;2022-08-21T03:33:17;13.40;99.90
12115;DHT22;6121;49.810;6.418;2022-08-21T03:35:44;13.40;99.90
12115;DHT22;6121;49.810;6.418;2022-08-21T03:38:10;13.30;99.90
12115;DHT22;6121;49.810;6.418;2022-08-21T03:40:38;13.20;99.90
12115;DHT22;6121;49.810;6.418;2022-08-21T03:43:03;13.50;99.90
12115;DHT22;6121;49.810;6.418;2022-08-21T03:45:29;13.50;99.90
12115;DHT22;6121;49.810;6.418;2022-08-21T03:47:58;13.50;99.90
12115;DHT22;6121;49.810;6.418;2022-08-21T03:50:25;13.50;99.90
12115;DHT22;6121;49.810;6.418;2022-08-21T03:52:51;13.50;99.90
12115;DHT22;6121;49.810;6.418;2022-08-21T03:55:16;13.70;99.90
12115;DHT22;6121;49.810;6.418;2022-08-21T03:57:42;13.60;99.90
12115;DHT22;6121;49.810;6.418;2022-08-21T04:00:09;13.40;99.90
12115;DHT22;6121;49.810;6.418;2022-08-21T04:02:37;13.40;99.90
12115;DHT22;6121;49.810;6.418;2022-08-21T04:05:04;13.50;99.90
12115;DHT22;6121;49.810;6.418;2022-08-21T04:07:29;13.20;99.90
12115;DHT22;6121;49.810;6.418;2022-08-21T04:09:55;13.10;99.90
12115;DHT22;6121;49.810;6.418;2022-08-21T04:12:21;13.20;99.90
12115;DHT22;6121;49.810;6.418;2022-08-21T04:14:46;13.30;99.90
12115;DHT22;6121;49.810;6.418;2022-08-21T04:17:12;13.30;99.90
12115;DHT22;6121;49.810;6.418;2022-08-21T04:19:38;13.10;99.90
12115;DHT22;6121;49.810;6.418;2022-08-21T04:22:04;13.10;99.90
12115;DHT22;6121;49.810;6.418;2022-08-21T04:24:29;13.10;99.90
12115;DHT22;6121;49.810;6.418;2022-08-21T04:26:55;13.20;99.90
12115;DHT22;6121;49.810;6.418;2022-08-21T04:29:21;13.20;99.90
12115;DHT22;6121;49.810;6.418;2022-08-21T04:31:47;13.20;99.90
12115;DHT22;6121;49.810;6.418;2022-08-21T04:34:12;13.30;99.90
12115;DHT22;6121;49.810;6.418;2022-08-21T04:36:38;13.10;99.90
12115;DHT22;6121;49.810;6.418;2022-08-21T04:39:04;13.30;99.90
12115;DHT22;6121;49.810;6.418;2022-08-21T04:41:30;13.40;99.90
12115;DHT22;6121;49.810;6.418;2022-08-21T04:43:55;13.30;99.90
12115;DHT22;6121;49.810;6.418;2022-08-21T04:46:22;13.10;99.90
12115;DHT22;6121;49.810;6.418;2022-08-21T04:48:48;13.10;99.90
12115;DHT22;6121;49.810;6.418;2022-08-21T04:51:21;13.10;99.90
12115;DHT22;6121;49.810;6.418;2022-08-21T04:53:55;13.10;99.90
12115;DHT22;6121;49.810;6.418;2022-08-21T04:56:27;13.10;99.90
12115;DHT22;6121;49.810;6.418;2022-08-21T04:58:57;13.00;99.90
12115;DHT22;6121;49.810;6.418;2022-08-21T05:01:25;13.00;99.90
12115;DHT22;6121;49.810;6.418;2022-08-21T05:03:55;12.90;99.90
12115;DHT22;6121;49.810;6.418;2022-08-21T05:06:22;12.90;99.90
12115;DHT22;6121;49.810;6.418;2022-08-21T05:08:50;12.90;99.90
12115;DHT22;6121;49.810;6.418;2022-08-21T05:11:17;13.00;99.90
12115;DHT22;6121;49.810;6.418;2022-08-21T05:13:42;13.10;99.90
12115;DHT22;6121;49.810;6.418;2022-08-21T05:16:08;13.10;99.90
12115;DHT22;6121;49.810;6.418;2022-08-21T05:18:33;13.20;99.90
12115;DHT22;6121;49.810;6.418;2022-08-21T05:20:59;13.30;99.90
12115;DHT22;6121;49.810;6.418;2022-08-21T05:23:25;13.50;99.90
12115;DHT22;6121;49.810;6.418;2022-08-21T05:25:52;13.60;99.90
12115;DHT22;6121;49.810;6.418;2022-08-21T05:28:18;13.60;99.90
12115;DHT22;6121;49.810;6.418;2022-08-21T05:30:44;13.60;99.90
12115;DHT22;6121;49.810;6.418;2022-08-21T05:33:10;13.60;99.90
12115;DHT22;6121;49.810;6.418;2022-08-21T05:35:36;13.60;99.90
12115;DHT22;6121;49.810;6.418;2022-08-21T05:38:03;13.60;99.90
12115;DHT22;6121;49.810;6.418;2022-08-21T05:40:29;13.80;99.90
12115;DHT22;6121;49.810;6.418;2022-08-21T05:42:56;13.90;99.90
12115;DHT22;6121;49.810;6.418;2022-08-21T05:45:24;14.20;99.90
12115;DHT22;6121;49.810;6.418;2022-08-21T05:47:50;14.30;99.90
12115;DHT22;6121;49.810;6.418;2022-08-21T05:50:15;14.40;99.90
12115;DHT22;6121;49.810;6.418;2022-08-21T05:52:41;14.60;99.90
12115;DHT22;6121;49.810;6.418;2022-08-21T05:55:07;14.80;99.90
12115;DHT22;6121;49.810;6.418;2022-08-21T05:57:32;15.00;99.90
12115;DHT22;6121;49.810;6.418;2022-08-21T05:59:58;14.70;99.90
12115;DHT22;6121;49.810;6.418;2022-08-21T06:02:24;14.70;99.90
12115;DHT22;6121;49.810;6.418;2022-08-21T06:04:49;14.80;99.90
12115;DHT22;6121;49.810;6.418;2022-08-21T06:07:15;15.00;99.90
12115;DHT22;6121;49.810;6.418;2022-08-21T06:09:41;15.00;99.90
12115;DHT22;6121;49.810;6.418;2022-08-21T06:12:08;15.30;99.90
12115;DHT22;6121;49.810;6.418;2022-08-21T06:14:35;15.70;99.90
12115;DHT22;6121;49.810;6.418;2022-08-21T06:17:05;15.80;99.90
12115;DHT22;6121;49.810;6.418;2022-08-21T06:19:31;15.60;99.90
12115;DHT22;6121;49.810;6.418;2022-08-21T06:21:57;15.70;99.90
12115;DHT22;6121;49.810;6.418;2022-08-21T06:24:22;15.90;99.90
12115;DHT22;6121;49.810;6.418;2022-08-21T06:26:48;15.90;99.90
12115;DHT22;6121;49.810;6.418;2022-08-21T06:29:13;16.00;99.90
12115;DHT22;6121;49.810;6.418;2022-08-21T06:31:42;16.10;99.90
12115;DHT22;6121;49.810;6.418;2022-08-21T06:34:08;16.40;99.90
12115;DHT22;6121;49.810;6.418;2022-08-21T06:36:33;16.60;99.90
12115;DHT22;6121;49.810;6.418;2022-08-21T06:38:59;16.90;99.90
12115;DHT22;6121;49.810;6.418;2022-08-21T06:41:25;16.90;99.90
12115;DHT22;6121;49.810;6.418;2022-08-21T06:43:51;16.80;99.90
12115;DHT22;6121;49.810;6.418;2022-08-21T06:46:17;17.10;99.90
12115;DHT22;6121;49.810;6.418;2022-08-21T06:48:42;17.30;99.90
12115;DHT22;6121;49.810;6.418;2022-08-21T06:51:08;17.50;99.90
12115;DHT22;6121;49.810;6.418;2022-08-21T06:53:33;17.50;99.90
12115;DHT22;6121;49.810;6.418;2022-08-21T06:55:59;17.80;99.90
12115;DHT22;6121;49.810;6.418;2022-08-21T06:58:25;17.90;99.90
12115;DHT22;6121;49.810;6.418;2022-08-21T07:00:51;17.90;99.90
12115;DHT22;6121;49.810;6.418;2022-08-21T07:03:27;18.20;99.90
12115;DHT22;6121;49.810;6.418;2022-08-21T07:05:53;18.60;99.90
12115;DHT22;6121;49.810;6.418;2022-08-21T07:08:20;18.60;99.90
12115;DHT22;6121;49.810;6.418;2022-08-21T07:10:47;18.80;99.90
12115;DHT22;6121;49.810;6.418;2022-08-21T07:13:13;18.90;99.90
12115;DHT22;6121;49.810;6.418;2022-08-21T07:15:39;18.70;99.90
12115;DHT22;6121;49.810;6.418;2022-08-21T07:18:05;18.80;99.90
12115;DHT22;6121;49.810;6.418;2022-08-21T07:20:31;19.10;99.90
12115;DHT22;6121;49.810;6.418;2022-08-21T07:23:01;19.10;99.90
12115;DHT22;6121;49.810;6.418;2022-08-21T07:25:27;19.30;99.90
12115;DHT22;6121;49.810;6.418;2022-08-21T07:27:53;19.50;99.90
12115;DHT22;6121;49.810;6.418;2022-08-21T07:30:19;19.70;99.90
12115;DHT22;6121;49.810;6.418;2022-08-21T07:32:45;19.70;99.90
12115;DHT22;6121;49.810;6.418;2022-08-21T07:35:11;20.00;99.90
12115;DHT22;6121;49.810;6.418;2022-08-21T07:37:36;20.10;99.90
12115;DHT22;6121;49.810;6.418;2022-08-21T07:40:03;20.50;99.90
12115;DHT22;6121;49.810;6.418;2022-08-21T07:42:29;20.50;99.90
12115;DHT22;6121;49.810;6.418;2022-08-21T07:44:55;20.80;99.90
12115;DHT22;6121;49.810;6.418;2022-08-21T07:47:21;21.10;99.90
12115;DHT22;6121;49.810;6.418;2022-08-21T07:49:46;21.50;99.80
12115;DHT22;6121;49.810;6.418;2022-08-21T07:52:12;21.20;99.20
12115;DHT22;6121;49.810;6.418;2022-08-21T07:54:37;21.00;99.60
12115;DHT22;6121;49.810;6.418;2022-08-21T07:57:03;21.40;99.20
12115;DHT22;6121;49.810;6.418;2022-08-21T07:59:29;21.80;98.40
12115;DHT22;6121;49.810;6.418;2022-08-21T08:01:55;22.20;97.80
12115;DHT22;6121;49.810;6.418;2022-08-21T08:04:21;22.20;97.50
12115;DHT22;6121;49.810;6.418;2022-08-21T08:06:47;22.00;97.10
12115;DHT22;6121;49.810;6.418;2022-08-21T08:09:13;22.00;97.40
12115;DHT22;6121;49.810;6.418;2022-08-21T08:11:41;22.50;97.30
12115;DHT22;6121;49.810;6.418;2022-08-21T08:14:09;22.60;96.50
12115;DHT22;6121;49.810;6.418;2022-08-21T08:16:35;22.80;96.60
12115;DHT22;6121;49.810;6.418;2022-08-21T08:19:00;22.70;96.20
12115;DHT22;6121;49.810;6.418;2022-08-21T08:21:26;22.90;96.30
12115;DHT22;6121;49.810;6.418;2022-08-21T08:23:53;23.30;96.10
12115;DHT22;6121;49.810;6.418;2022-08-21T08:26:18;23.80;95.40
12115;DHT22;6121;49.810;6.418;2022-08-21T08:28:44;24.00;95.00
12115;DHT22;6121;49.810;6.418;2022-08-21T08:31:12;23.90;95.00
12115;DHT22;6121;49.810;6.418;2022-08-21T08:33:37;24.00;94.70
12115;DHT22;6121;49.810;6.418;2022-08-21T08:36:03;23.90;94.80
12115;DHT22;6121;49.810;6.418;2022-08-21T08:38:29;24.30;94.50
12115;DHT22;6121;49.810;6.418;2022-08-21T08:41:13;24.40;94.30
12115;DHT22;6121;49.810;6.418;2022-08-21T08:43:42;24.80;94.00
12115;DHT22;6121;49.810;6.418;2022-08-21T08:46:14;24.80;93.50
12115;DHT22;6121;49.810;6.418;2022-08-21T08:48:53;24.70;92.80
12115;DHT22;6121;49.810;6.418;2022-08-21T08:54:13;25.30;93.40
12115;DHT22;6121;49.810;6.418;2022-08-21T08:56:40;25.50;92.70
12115;DHT22;6121;49.810;6.418;2022-08-21T08:59:13;25.80;92.50
12115;DHT22;6121;49.810;6.418;2022-08-21T09:01:40;26.10;92.20
12115;DHT22;6121;49.810;6.418;2022-08-21T09:04:06;25.90;91.60
12115;DHT22;6121;49.810;6.418;2022-08-21T09:06:53;26.10;91.60
12115;DHT22;6121;49.810;6.418;2022-08-21T09:12:17;26.90;90.30
12115;DHT22;6121;49.810;6.418;2022-08-21T09:23:08;27.40;87.70
12115;DHT22;6121;49.810;6.418;2022-08-21T09:28:26;27.90;86.30
12115;DHT22;6121;49.810;6.418;2022-08-21T09:30:54;28.20;85.50
12115;DHT22;6121;49.810;6.418;2022-08-21T09:33:20;28.60;83.80
12115;DHT22;6121;49.810;6.418;2022-08-21T09:35:55;28.90;82.90
12115;DHT22;6121;49.810;6.418;2022-08-21T09:38:30;29.10;81.30
12115;DHT22;6121;49.810;6.418;2022-08-21T09:41:06;29.20;79.80
12115;DHT22;6121;49.810;6.418;2022-08-21T09:43:32;29.10;78.30
12115;DHT22;6121;49.810;6.418;2022-08-21T09:46:10;28.70;77.90
12115;DHT22;6121;49.810;6.418;2022-08-21T09:48:49;29.00;78.10
12115;DHT22;6121;49.810;6.418;2022-08-21T09:51:22;29.10;77.10
12115;DHT22;6121;49.810;6.418;2022-08-21T09:53:52;29.00;76.60
12115;DHT22;6121;49.810;6.418;2022-08-21T09:56:29;29.10;77.20
12115;DHT22;6121;49.810;6.418;2022-08-21T09:59:19;29.10;76.40
12115;DHT22;6121;49.810;6.418;2022-08-21T10:01:49;29.30;76.20
12115;DHT22;6121;49.810;6.418;2022-08-21T10:04:18;29.30;76.70
12115;DHT22;6121;49.810;6.418;2022-08-21T10:06:44;29.40;76.10
12115;DHT22;6121;49.810;6.418;2022-08-21T10:09:16;29.40;76.10
12115;DHT22;6121;49.810;6.418;2022-08-21T10:14:57;29.90;74.50
12115;DHT22;6121;49.810;6.418;2022-08-21T10:17:38;30.10;73.00
12115;DHT22;6121;49.810;6.418;2022-08-21T10:22:40;29.80;71.80
12115;DHT22;6121;49.810;6.418;2022-08-21T10:25:31;30.30;70.70
12115;DHT22;6121;49.810;6.418;2022-08-21T10:28:17;30.80;69.90
12115;DHT22;6121;49.810;6.418;2022-08-21T10:30:52;30.80;68.40
12115;DHT22;6121;49.810;6.418;2022-08-21T10:36:20;31.00;68.30
12115;DHT22;6121;49.810;6.418;2022-08-21T10:39:13;31.20;67.70
12115;DHT22;6121;49.810;6.418;2022-08-21T10:47:55;31.90;66.40
12115;DHT22;6121;49.810;6.418;2022-08-21T10:50:39;31.80;65.30
12115;DHT22;6121;49.810;6.418;2022-08-21T10:55:57;32.00;65.90
12115;DHT22;6121;49.810;6.418;2022-08-21T10:58:36;32.00;64.50
12115;DHT22;6121;49.810;6.418;2022-08-21T11:01:20;31.70;63.90
12115;DHT22;6121;49.810;6.418;2022-08-21T11:03:53;31.70;64.80
12115;DHT22;6121;49.810;6.418;2022-08-21T11:06:29;32.00;64.20
12115;DHT22;6121;49.810;6.418;2022-08-21T11:09:03;31.60;62.40
12115;DHT22;6121;49.810;6.418;2022-08-21T11:11:32;31.40;61.80
12115;DHT22;6121;49.810;6.418;2022-08-21T11:14:08;31.30;61.10
12115;DHT22;6121;49.810;6.418;2022-08-21T11:17:05;31.60;62.40
12115;DHT22;6121;49.810;6.418;2022-08-21T11:20:10;31.40;61.80
12115;DHT22;6121;49.810;6.418;2022-08-21T11:22:44;31.70;62.80
12115;DHT22;6121;49.810;6.418;2022-08-21T11:25:21;32.00;62.30
12115;DHT22;6121;49.810;6.418;2022-08-21T11:27:56;32.20;61.80
12115;DHT22;6121;49.810;6.418;2022-08-21T11:30:29;32.20;61.30
12115;DHT22;6121;49.810;6.418;2022-08-21T11:33:31;32.10;60.20
12115;DHT22;6121;49.810;6.418;2022-08-21T11:39:27;32.20;61.60
12115;DHT22;6121;49.810;6.418;2022-08-21T11:47:46;32.00;58.90
12115;DHT22;6121;49.810;6.418;2022-08-21T11:50:18;31.70;59.20
12115;DHT22;6121;49.810;6.418;2022-08-21T11:55:41;31.40;58.60
12115;DHT22;6121;49.810;6.418;2022-08-21T11:58:24;31.20;58.50
12115;DHT22;6121;49.810;6.418;2022-08-21T12:01:03;31.30;59.00
12115;DHT22;6121;49.810;6.418;2022-08-21T12:03:41;30.90;59.00
12115;DHT22;6121;49.810;6.418;2022-08-21T12:06:13;31.10;59.30
12115;DHT22;6121;49.810;6.418;2022-08-21T12:08:42;31.20;58.70
12115;DHT22;6121;49.810;6.418;2022-08-21T12:11:22;31.20;58.50
12115;DHT22;6121;49.810;6.418;2022-08-21T12:16:34;31.20;59.20
12115;DHT22;6121;49.810;6.418;2022-08-21T12:21:34;30.90;58.20
12115;DHT22;6121;49.810;6.418;2022-08-21T12:24:20;30.80;58.60
12115;DHT22;6121;49.810;6.418;2022-08-21T12:26:55;30.40;57.40
12115;DHT22;6121;49.810;6.418;2022-08-21T12:29:28;30.10;58.00
12115;DHT22;6121;49.810;6.418;2022-08-21T12:32:04;29.60;58.00
12115;DHT22;6121;49.810;6.418;2022-08-21T12:35:06;29.60;58.10
12115;DHT22;6121;49.810;6.418;2022-08-21T12:37:44;29.40;57.30
12115;DHT22;6121;49.810;6.418;2022-08-21T12:40:18;29.70;58.30
12115;DHT22;6121;49.810;6.418;2022-08-21T12:42:49;29.70;59.50
12115;DHT22;6121;49.810;6.418;2022-08-21T12:45:33;30.00;59.50
12115;DHT22;6121;49.810;6.418;2022-08-21T12:48:10;30.10;59.20
12115;DHT22;6121;49.810;6.418;2022-08-21T12:50:58;30.20;58.30
12115;DHT22;6121;49.810;6.418;2022-08-21T12:56:12;30.20;59.20
12115;DHT22;6121;49.810;6.418;2022-08-21T12:58:47;30.20;58.70
12115;DHT22;6121;49.810;6.418;2022-08-21T13:01:35;30.30;58.00
12115;DHT22;6121;49.810;6.418;2022-08-21T13:04:07;29.90;56.10
12115;DHT22;6121;49.810;6.418;2022-08-21T13:06:42;29.70;56.70
12115;DHT22;6121;49.810;6.418;2022-08-21T13:09:12;29.40;55.90
12115;DHT22;6121;49.810;6.418;2022-08-21T13:11:44;29.30;56.30
12115;DHT22;6121;49.810;6.418;2022-08-21T13:14:39;29.40;56.30
12115;DHT22;6121;49.810;6.418;2022-08-21T13:17:06;29.40;56.40
12115;DHT22;6121;49.810;6.418;2022-08-21T13:19:33;29.50;57.00
12115;DHT22;6121;49.810;6.418;2022-08-21T13:22:00;29.60;57.60
12115;DHT22;6121;49.810;6.418;2022-08-21T13:24:28;29.80;57.90
12115;DHT22;6121;49.810;6.418;2022-08-21T13:26:56;29.80;58.00
12115;DHT22;6121;49.810;6.418;2022-08-21T13:29:27;29.80;57.40
12115;DHT22;6121;49.810;6.418;2022-08-21T13:31:57;29.70;57.30
12115;DHT22;6121;49.810;6.418;2022-08-21T13:34:28;29.80;57.30
12115;DHT22;6121;49.810;6.418;2022-08-21T13:37:02;29.80;57.30
12115;DHT22;6121;49.810;6.418;2022-08-21T13:39:29;29.80;57.40
12115;DHT22;6121;49.810;6.418;2022-08-21T13:41:56;29.50;57.50
12115;DHT22;6121;49.810;6.418;2022-08-21T13:44:31;29.60;57.00
12115;DHT22;6121;49.810;6.418;2022-08-21T13:46:59;29.40;57.30
12115;DHT22;6121;49.810;6.418;2022-08-21T13:49:34;29.20;57.90
12115;DHT22;6121;49.810;6.418;2022-08-21T13:52:00;29.20;58.00
12115;DHT22;6121;49.810;6.418;2022-08-21T13:54:33;29.30;58.10
12115;DHT22;6121;49.810;6.418;2022-08-21T13:56:59;29.30;58.40
12115;DHT22;6121;49.810;6.418;2022-08-21T13:59:30;29.30;57.50
12115;DHT22;6121;49.810;6.418;2022-08-21T14:02:00;29.40;57.70
12115;DHT22;6121;49.810;6.418;2022-08-21T14:04:34;29.30;57.40
12115;DHT22;6121;49.810;6.418;2022-08-21T14:07:01;29.30;56.80
12115;DHT22;6121;49.810;6.418;2022-08-21T14:09:35;29.30;57.00
12115;DHT22;6121;49.810;6.418;2022-08-21T14:12:15;29.40;56.80
12115;DHT22;6121;49.810;6.418;2022-08-21T14:14:41;29.50;56.50
12115;DHT22;6121;49.810;6.418;2022-08-21T14:17:13;29.50;57.00
12115;DHT22;6121;49.810;6.418;2022-08-21T14:19:42;29.50;56.50
12115;DHT22;6121;49.810;6.418;2022-08-21T14:22:29;29.30;54.80
12115;DHT22;6121;49.810;6.418;2022-08-21T14:25:01;29.00;55.10
12115;DHT22;6121;49.810;6.418;2022-08-21T14:27:29;28.90;56.50
12115;DHT22;6121;49.810;6.418;2022-08-21T14:30:04;29.00;57.90
12115;DHT22;6121;49.810;6.418;2022-08-21T14:32:38;29.10;58.00
12115;DHT22;6121;49.810;6.418;2022-08-21T14:35:04;29.10;58.20
12115;DHT22;6121;49.810;6.418;2022-08-21T14:37:30;29.10;57.90
12115;DHT22;6121;49.810;6.418;2022-08-21T14:39:55;29.20;56.90
12115;DHT22;6121;49.810;6.418;2022-08-21T14:42:21;29.20;57.00
12115;DHT22;6121;49.810;6.418;2022-08-21T14:44:47;29.30;55.90
12115;DHT22;6121;49.810;6.418;2022-08-21T14:47:13;29.30;55.40
12115;DHT22;6121;49.810;6.418;2022-08-21T14:49:38;29.40;56.10
12115;DHT22;6121;49.810;6.418;2022-08-21T14:52:05;29.40;55.40
12115;DHT22;6121;49.810;6.418;2022-08-21T14:54:32;29.40;55.30
12115;DHT22;6121;49.810;6.418;2022-08-21T14:57:05;29.30;55.20
12115;DHT22;6121;49.810;6.418;2022-08-21T14:59:31;29.10;55.70
12115;DHT22;6121;49.810;6.418;2022-08-21T15:01:58;29.00;56.60
12115;DHT22;6121;49.810;6.418;2022-08-21T15:04:24;28.90;57.40
12115;DHT22;6121;49.810;6.418;2022-08-21T15:06:49;28.90;57.90
12115;DHT22;6121;49.810;6.418;2022-08-21T15:09:15;28.90;58.10
12115;DHT22;6121;49.810;6.418;2022-08-21T15:11:41;28.90;58.40
12115;DHT22;6121;49.810;6.418;2022-08-21T15:14:08;28.80;58.30
12115;DHT22;6121;49.810;6.418;2022-08-21T15:16:36;28.70;59.10
12115;DHT22;6121;49.810;6.418;2022-08-21T15:19:02;28.70;58.60
12115;DHT22;6121;49.810;6.418;2022-08-21T15:21:28;28.70;58.90
12115;DHT22;6121;49.810;6.418;2022-08-21T15:23:53;28.80;58.30
12115;DHT22;6121;49.810;6.418;2022-08-21T15:26:21;28.80;58.60
12115;DHT22;6121;49.810;6.418;2022-08-21T15:28:47;28.80;58.20
12115;DHT22;6121;49.810;6.418;2022-08-21T15:31:13;28.70;59.10
12115;DHT22;6121;49.810;6.418;2022-08-21T15:33:38;28.70;59.00
12115;DHT22;6121;49.810;6.418;2022-08-21T15:36:04;28.60;58.40
12115;DHT22;6121;49.810;6.418;2022-08-21T15:38:30;28.70;58.80
12115;DHT22;6121;49.810;6.418;2022-08-21T15:40:56;28.80;59.10
12115;DHT22;6121;49.810;6.418;2022-08-21T15:43:42;28.70;59.10
12115;DHT22;6121;49.810;6.418;2022-08-21T15:46:10;28.80;59.20
12115;DHT22;6121;49.810;6.418;2022-08-21T15:48:37;28.60;59.50
12115;DHT22;6121;49.810;6.418;2022-08-21T15:51:02;28.60;59.10
12115;DHT22;6121;49.810;6.418;2022-08-21T15:53:28;28.50;59.00
12115;DHT22;6121;49.810;6.418;2022-08-21T15:55:54;28.50;59.30
12115;DHT22;6121;49.810;6.418;2022-08-21T15:58:21;28.40;59.60
12115;DHT22;6121;49.810;6.418;2022-08-21T16:00:47;28.40;59.60
12115;DHT22;6121;49.810;6.418;2022-08-21T16:03:15;28.20;59.50
12115;DHT22;6121;49.810;6.418;2022-08-21T16:05:45;28.10;59.70
12115;DHT22;6121;49.810;6.418;2022-08-21T16:08:13;28.10;59.70
12115;DHT22;6121;49.810;6.418;2022-08-21T16:10:39;28.00;60.30
12115;DHT22;6121;49.810;6.418;2022-08-21T16:13:10;28.00;59.60
12115;DHT22;6121;49.810;6.418;2022-08-21T16:15:36;27.90;59.70
12115;DHT22;6121;49.810;6.418;2022-08-21T16:18:02;27.80;60.00
12115;DHT22;6121;49.810;6.418;2022-08-21T16:20:29;27.80;60.40
12115;DHT22;6121;49.810;6.418;2022-08-21T16:22:56;27.80;61.20
12115;DHT22;6121;49.810;6.418;2022-08-21T16:25:22;27.80;62.00
12115;DHT22;6121;49.810;6.418;2022-08-21T16:27:50;27.80;62.60
12115;DHT22;6121;49.810;6.418;2022-08-21T16:30:18;27.80;63.20
12115;DHT22;6121;49.810;6.418;2022-08-21T16:32:44;27.90;62.70
12115;DHT22;6121;49.810;6.418;2022-08-21T16:35:13;27.80;62.90
12115;DHT22;6121;49.810;6.418;2022-08-21T16:37:39;27.90;62.80
12115;DHT22;6121;49.810;6.418;2022-08-21T16:40:06;28.00;62.90
12115;DHT22;6121;49.810;6.418;2022-08-21T16:42:34;28.00;62.70
12115;DHT22;6121;49.810;6.418;2022-08-21T16:45:00;28.00;62.50
12115;DHT22;6121;49.810;6.418;2022-08-21T16:47:29;28.00;62.70
12115;DHT22;6121;49.810;6.418;2022-08-21T16:49:56;28.00;63.30